sensor_id;sensor_type;location;lat;lon;timestamp;pressure;altitude;pressure_sealevel;temperature;humidity
20228;BME280;12195;55.790;37.572;2024-01-11T00:00:21;98018.69;;;-4.02;78.32
20228;BME280;12195;55.790;37.572;2024-01-11T00:02:53;97998.19;;;-4.02;78.27
20228;BME280;12195;55.790;37.572;2024-01-11T00:05:26;97986.09;;;-3.97;78.40
20228;BME280;12195;55.790;37.572;2024-01-11T00:07:59;97977.48;;;-3.94;78.38
20228;BME280;12195;55.790;37.572;2024-01-11T00:10:32;97972.33;;;-3.93;78.32
20228;BME280;12195;55.790;37.572;2024-01-11T00:13:04;97959.41;;;-3.88;78.37
20228;BME280;12195;55.790;37.572;2024-01-11T00:15:37;97952.55;;;-3.88;78.30
20228;BME280;12195;55.790;37.572;2024-01-11T00:18:09;97942.22;;;-3.85;78.32
20228;BME280;12195;55.790;37.572;2024-01-11T00:20:42;97929.27;;;-3.79;78.40
20228;BME280;12195;55.790;37.572;2024-01-11T00:23:15;97920.65;;;-3.76;78.37
20228;BME280;12195;55.790;37.572;2024-01-11T00:25:48;97914.59;;;-3.74;78.34
20228;BME280;12195;55.790;37.572;2024-01-11T00:28:20;97898.22;;;-3.68;78.33
20228;BME280;12195;55.790;37.572;2024-01-11T00:30:53;97889.59;;;-3.66;78.33
20228;BME280;12195;55.790;37.572;2024-01-11T00:33:26;97887.81;;;-3.64;78.37
20228;BME280;12195;55.790;37.572;2024-01-11T00:35:59;97878.06;;;-3.51;78.51
20228;BME280;12195;55.790;37.572;2024-01-11T00:38:31;97876.33;;;-3.51;78.46
20228;BME280;12195;55.790;37.572;2024-01-11T00:41:04;97862.38;;;-3.41;78.63
20228;BME280;12195;55.790;37.572;2024-01-11T00:43:37;97843.44;;;-3.37;78.67
20228;BME280;12195;55.790;37.572;2024-01-11T00:46:09;97843.44;;;-3.37;78.66
20228;BME280;12195;55.790;37.572;2024-01-11T00:48:42;97835.09;;;-3.16;79.04
20228;BME280;12195;55.790;37.572;2024-01-11T00:51:15;97822.73;;;-3.31;78.87
20228;BME280;12195;55.790;37.572;2024-01-11T00:53:48;97822.60;;;-3.26;78.96
20228;BME280;12195;55.790;37.572;2024-01-11T00:56:21;97811.61;;;-3.30;78.89
20228;BME280;12195;55.790;37.572;2024-01-11T00:58:53;97802.04;;;-3.25;79.03
20228;BME280;12195;55.790;37.572;2024-01-11T01:01:26;97796.70;;;-3.19;79.13
20228;BME280;12195;55.790;37.572;2024-01-11T01:03:58;97793.32;;;-3.19;79.08
20228;BME280;12195;55.790;37.572;2024-01-11T01:06:32;97778.66;;;-3.16;79.10
20228;BME280;12195;55.790;37.572;2024-01-11T01:09:04;97769.89;;;-3.09;79.18
20228;BME280;12195;55.790;37.572;2024-01-11T01:11:37;97759.45;;;-3.04;79.19
20228;BME280;12195;55.790;37.572;2024-01-11T01:14:09;97755.27;;;-3.07;79.23
20228;BME280;12195;55.790;37.572;2024-01-11T01:16:42;97750.05;;;-3.04;79.26
20228;BME280;12195;55.790;37.572;2024-01-11T01:19:14;97744.70;;;-2.98;79.33
20228;BME280;12195;55.790;37.572;2024-01-11T01:21:47;97722.31;;;-2.93;79.37
20228;BME280;12195;55.790;37.572;2024-01-11T01:24:20;97725.61;;;-2.89;79.42
20228;BME280;12195;55.790;37.572;2024-01-11T01:26:52;97713.45;;;-2.84;79.47
20228;BME280;12195;55.790;37.572;2024-01-11T01:29:25;97699.48;;;-2.76;79.61
20228;BME280;12195;55.790;37.572;2024-01-11T01:31:58;97688.36;;;-2.76;79.46
20228;BME280;12195;55.790;37.572;2024-01-11T01:34:31;97689.20;;;-2.76;79.52
20228;BME280;12195;55.790;37.572;2024-01-11T01:37:04;97675.38;;;-2.72;79.58
20228;BME280;12195;55.790;37.572;2024-01-11T01:39:40;97669.44;;;-2.74;79.59
20228;BME280;12195;55.790;37.572;2024-01-11T01:42:13;97667.44;;;-2.66;79.66
20228;BME280;12195;55.790;37.572;2024-01-11T01:44:46;97660.36;;;-2.59;79.68
20228;BME280;12195;55.790;37.572;2024-01-11T01:47:19;97650.75;;;-2.54;79.75
20228;BME280;12195;55.790;37.572;2024-01-11T01:49:52;97648.32;;;-2.57;79.72
20228;BME280;12195;55.790;37.572;2024-01-11T01:52:25;97630.51;;;-2.39;80.02
20228;BME280;12195;55.790;37.572;2024-01-11T01:54:59;97628.15;;;-2.45;79.81
20228;BME280;12195;55.790;37.572;2024-01-11T01:57:35;97615.15;;;-2.40;79.88
20228;BME280;12195;55.790;37.572;2024-01-11T02:00:10;97615.76;;;-2.34;80.00
20228;BME280;12195;55.790;37.572;2024-01-11T02:02:44;97609.56;;;-2.28;80.05
20228;BME280;12195;55.790;37.572;2024-01-11T02:05:18;97588.95;;;-2.27;80.03
20228;BME280;12195;55.790;37.572;2024-01-11T02:07:51;97563.06;;;-2.18;80.10
20228;BME280;12195;55.790;37.572;2024-01-11T02:10:24;97563.06;;;-2.22;80.21
20228;BME280;12195;55.790;37.572;2024-01-11T02:12:56;97585.02;;;-2.14;80.23
20228;BME280;12195;55.790;37.572;2024-01-11T02:15:29;97560.45;;;-1.99;80.27
20228;BME280;12195;55.790;37.572;2024-01-11T02:18:02;97568.33;;;-2.04;80.33
20228;BME280;12195;55.790;37.572;2024-01-11T02:20:35;97549.91;;;-1.93;80.35
20228;BME280;12195;55.790;37.572;2024-01-11T02:23:14;97539.45;;;-1.89;80.42
20228;BME280;12195;55.790;37.572;2024-01-11T02:25:46;97540.04;;;-1.82;80.51
20228;BME280;12195;55.790;37.572;2024-01-11T02:28:19;97531.70;;;-1.67;80.78
20228;BME280;12195;55.790;37.572;2024-01-11T02:30:52;97507.59;;;-1.65;80.66
20228;BME280;12195;55.790;37.572;2024-01-11T02:33:25;97507.59;;;-1.65;80.66
20228;BME280;12195;55.790;37.572;2024-01-11T02:35:58;97506.52;;;-1.59;80.67
20228;BME280;12195;55.790;37.572;2024-01-11T02:38:32;97507.03;;;-1.51;80.71
20228;BME280;12195;55.790;37.572;2024-01-11T02:41:04;97494.98;;;-1.51;80.80
20228;BME280;12195;55.790;37.572;2024-01-11T02:43:37;97496.38;;;-1.24;80.88
20228;BME280;12195;55.790;37.572;2024-01-11T02:46:11;97480.38;;;-1.30;80.41
20228;BME280;12195;55.790;37.572;2024-01-11T02:48:43;97475.23;;;-1.30;80.59
20228;BME280;12195;55.790;37.572;2024-01-11T02:51:16;97468.98;;;-1.25;80.70
20228;BME280;12195;55.790;37.572;2024-01-11T02:53:49;97469.55;;;-1.18;80.81
20228;BME280;12195;55.790;37.572;2024-01-11T02:56:22;97467.59;;;-1.13;80.94
20228;BME280;12195;55.790;37.572;2024-01-11T02:58:55;97461.48;;;-1.11;81.02
20228;BME280;12195;55.790;37.572;2024-01-11T03:01:27;97443.89;;;-1.01;81.04
20228;BME280;12195;55.790;37.572;2024-01-11T03:04:01;97439.48;;;-0.99;81.12
20228;BME280;12195;55.790;37.572;2024-01-11T03:06:34;97435.67;;;-0.91;81.19
20228;BME280;12195;55.790;37.572;2024-01-11T03:09:06;97427.81;;;-0.88;81.24
20228;BME280;12195;55.790;37.572;2024-01-11T03:11:39;97419.86;;;-0.83;81.29
20228;BME280;12195;55.790;37.572;2024-01-11T03:14:12;97423.90;;;-0.78;81.38
20228;BME280;12195;55.790;37.572;2024-01-11T03:16:46;97421.94;;;-0.73;81.43
20228;BME280;12195;55.790;37.572;2024-01-11T03:19:18;97418.55;;;-0.73;81.58
20228;BME280;12195;55.790;37.572;2024-01-11T03:21:52;97413.16;;;-0.69;81.62
20228;BME280;12195;55.790;37.572;2024-01-11T03:24:25;97411.13;;;-0.62;81.67
20228;BME280;12195;55.790;37.572;2024-01-11T03:26:57;97393.80;;;-0.59;81.75
20228;BME280;12195;55.790;37.572;2024-01-11T03:29:30;97394.41;;;-0.54;81.84
20228;BME280;12195;55.790;37.572;2024-01-11T03:32:04;97400.95;;;-0.47;81.83
20228;BME280;12195;55.790;37.572;2024-01-11T03:34:36;97386.37;;;-0.48;81.88
20228;BME280;12195;55.790;37.572;2024-01-11T03:37:09;97379.95;;;-0.39;81.88
20228;BME280;12195;55.790;37.572;2024-01-11T03:39:42;97376.53;;;-0.40;81.96
20228;BME280;12195;55.790;37.572;2024-01-11T03:42:14;97371.23;;;-0.37;82.05
20228;BME280;12195;55.790;37.572;2024-01-11T03:44:47;97360.25;;;-0.23;82.16
20228;BME280;12195;55.790;37.572;2024-01-11T03:47:20;97374.20;;;-0.27;82.15
20228;BME280;12195;55.790;37.572;2024-01-11T03:49:54;97355.95;;;-0.23;82.17
20228;BME280;12195;55.790;37.572;2024-01-11T03:52:27;97351.31;;;-0.16;82.17
20228;BME280;12195;55.790;37.572;2024-01-11T03:55:00;97345.84;;;-0.10;82.13
20228;BME280;12195;55.790;37.572;2024-01-11T03:57:33;97346.51;;;-0.07;82.17
20228;BME280;12195;55.790;37.572;2024-01-11T04:00:07;97347.73;;;0.03;82.21
20228;BME280;12195;55.790;37.572;2024-01-11T04:02:42;97346.59;;;0.09;82.12
20228;BME280;12195;55.790;37.572;2024-01-11T04:05:16;97348.91;;;0.13;82.17
20228;BME280;12195;55.790;37.572;2024-01-11T04:07:50;97345.74;;;0.08;82.19
20228;BME280;12195;55.790;37.572;2024-01-11T04:10:23;97347.73;;;0.03;82.28
20228;BME280;12195;55.790;37.572;2024-01-11T04:12:56;97339.99;;;0.03;82.42
20228;BME280;12195;55.790;37.572;2024-01-11T04:15:28;97331.04;;;0.11;82.52
20228;BME280;12195;55.790;37.572;2024-01-11T04:18:01;97333.62;;;0.11;82.48
20228;BME280;12195;55.790;37.572;2024-01-11T04:20:35;97330.27;;;0.08;82.61
20228;BME280;12195;55.790;37.572;2024-01-11T04:23:08;97328.35;;;0.12;82.71
20228;BME280;12195;55.790;37.572;2024-01-11T04:25:41;97330.12;;;0.12;82.76
20228;BME280;12195;55.790;37.572;2024-01-11T04:28:15;97323.89;;;0.16;82.82
20228;BME280;12195;55.790;37.572;2024-01-11T04:30:49;97320.24;;;0.20;82.80
20228;BME280;12195;55.790;37.572;2024-01-11T04:33:24;97309.67;;;0.24;82.83
20228;BME280;12195;55.790;37.572;2024-01-11T04:35:58;97313.09;;;0.25;82.78
20228;BME280;12195;55.790;37.572;2024-01-11T04:38:32;97308.93;;;0.22;82.90
20228;BME280;12195;55.790;37.572;2024-01-11T04:41:14;97314.52;;;0.30;83.07
20228;BME280;12195;55.790;37.572;2024-01-11T04:43:49;97307.59;;;0.31;82.92
20228;BME280;12195;55.790;37.572;2024-01-11T04:46:25;97309.36;;;0.30;82.96
20228;BME280;12195;55.790;37.572;2024-01-11T04:48:58;97298.89;;;0.33;83.01
20228;BME280;12195;55.790;37.572;2024-01-11T04:51:30;97292.04;;;0.32;83.10
20228;BME280;12195;55.790;37.572;2024-01-11T04:54:08;97286.50;;;0.40;83.10
20228;BME280;12195;55.790;37.572;2024-01-11T04:56:42;97291.66;;;0.40;83.08
20228;BME280;12195;55.790;37.572;2024-01-11T04:59:15;97283.50;;;0.47;83.08
20228;BME280;12195;55.790;37.572;2024-01-11T05:01:49;97280.00;;;0.48;83.06
20228;BME280;12195;55.790;37.572;2024-01-11T05:04:22;97271.44;;;0.48;83.11
20228;BME280;12195;55.790;37.572;2024-01-11T05:06:56;97272.94;;;0.52;83.19
20228;BME280;12195;55.790;37.572;2024-01-11T05:09:29;97270.52;;;0.49;83.27
20228;BME280;12195;55.790;37.572;2024-01-11T05:12:03;97260.19;;;0.49;83.37
20228;BME280;12195;55.790;37.572;2024-01-11T05:14:35;97260.19;;;0.49;83.40
20228;BME280;12195;55.790;37.572;2024-01-11T05:17:08;97262.11;;;0.61;83.55
20228;BME280;12195;55.790;37.572;2024-01-11T05:19:42;97255.53;;;0.55;83.15
20228;BME280;12195;55.790;37.572;2024-01-11T05:22:15;97260.77;;;0.54;83.32
20228;BME280;12195;55.790;37.572;2024-01-11T05:24:50;97252.79;;;0.58;83.39
20228;BME280;12195;55.790;37.572;2024-01-11T05:27:29;97251.87;;;0.59;83.54
20228;BME280;12195;55.790;37.572;2024-01-11T05:30:03;97248.28;;;0.62;83.62
20228;BME280;12195;55.790;37.572;2024-01-11T05:32:36;97247.61;;;0.74;83.75
20228;BME280;12195;55.790;37.572;2024-01-11T05:35:10;97235.63;;;0.73;83.68
20228;BME280;12195;55.790;37.572;2024-01-11T05:37:43;97243.19;;;0.76;83.68
20228;BME280;12195;55.790;37.572;2024-01-11T05:40:17;97230.55;;;0.71;83.79
20228;BME280;12195;55.790;37.572;2024-01-11T05:42:51;97228.05;;;0.70;83.88
20228;BME280;12195;55.790;37.572;2024-01-11T05:45:23;97227.13;;;0.71;83.97
20228;BME280;12195;55.790;37.572;2024-01-11T05:48:01;97230.39;;;0.74;84.00
20228;BME280;12195;55.790;37.572;2024-01-11T05:50:35;97223.53;;;0.73;84.08
20228;BME280;12195;55.790;37.572;2024-01-11T05:53:08;97228.53;;;0.76;84.12
20228;BME280;12195;55.790;37.572;2024-01-11T05:55:42;97218.45;;;0.72;84.25
20228;BME280;12195;55.790;37.572;2024-01-11T05:58:16;97223.53;;;0.73;84.32
20228;BME280;12195;55.790;37.572;2024-01-11T06:00:49;97221.63;;;0.77;84.34
20228;BME280;12195;55.790;37.572;2024-01-11T06:03:24;97213.53;;;0.83;84.25
20228;BME280;12195;55.790;37.572;2024-01-11T06:05:57;97204.13;;;0.82;84.32
20228;BME280;12195;55.790;37.572;2024-01-11T06:08:31;97194.73;;;0.81;84.39
20228;BME280;12195;55.790;37.572;2024-01-11T06:11:04;97193.72;;;0.83;84.46
20228;BME280;12195;55.790;37.572;2024-01-11T06:13:41;97203.86;;;0.86;84.42
20228;BME280;12195;55.790;37.572;2024-01-11T06:16:14;97193.64;;;0.85;84.38
20228;BME280;12195;55.790;37.572;2024-01-11T06:18:50;97186.69;;;1.01;84.56
20228;BME280;12195;55.790;37.572;2024-01-11T06:21:22;97187.78;;;0.97;84.42
20228;BME280;12195;55.790;37.572;2024-01-11T06:23:55;97194.72;;;1.10;84.49
20228;BME280;12195;55.790;37.572;2024-01-11T06:26:28;97182.50;;;0.98;84.08
20228;BME280;12195;55.790;37.572;2024-01-11T06:29:03;97188.52;;;0.99;84.13
20228;BME280;12195;55.790;37.572;2024-01-11T06:31:39;97192.42;;;1.06;84.32
20228;BME280;12195;55.790;37.572;2024-01-11T06:34:15;97184.27;;;0.98;84.27
20228;BME280;12195;55.790;37.572;2024-01-11T06:36:48;97189.35;;;0.99;84.49
20228;BME280;12195;55.790;37.572;2024-01-11T06:39:24;97185.20;;;0.97;84.59
20228;BME280;12195;55.790;37.572;2024-01-11T06:41:57;97177.45;;;0.97;84.71
20228;BME280;12195;55.790;37.572;2024-01-11T06:44:32;97172.38;;;0.95;84.82
20228;BME280;12195;55.790;37.572;2024-01-11T06:47:07;97173.19;;;0.96;84.88
20228;BME280;12195;55.790;37.572;2024-01-11T06:49:40;97178.94;;;1.01;84.92
20228;BME280;12195;55.790;37.572;2024-01-11T06:52:14;97192.83;;;0.98;84.95
20228;BME280;12195;55.790;37.572;2024-01-11T06:54:48;97166.76;;;1.03;85.01
20228;BME280;12195;55.790;37.572;2024-01-11T06:57:21;97171.75;;;1.06;84.99
20228;BME280;12195;55.790;37.572;2024-01-11T06:59:55;97164.00;;;1.06;84.97
20228;BME280;12195;55.790;37.572;2024-01-11T07:02:31;97177.00;;;1.04;85.03
20228;BME280;12195;55.790;37.572;2024-01-11T07:05:06;97156.25;;;1.06;85.08
20228;BME280;12195;55.790;37.572;2024-01-11T07:07:39;97160.41;;;1.08;85.13
20228;BME280;12195;55.790;37.572;2024-01-11T07:10:13;97157.83;;;1.08;85.13
20228;BME280;12195;55.790;37.572;2024-01-11T07:12:47;97151.64;;;1.11;85.12
20228;BME280;12195;55.790;37.572;2024-01-11T07:15:21;97155.08;;;1.11;85.14
20228;BME280;12195;55.790;37.572;2024-01-11T07:17:56;97148.05;;;1.13;85.18
20228;BME280;12195;55.790;37.572;2024-01-11T07:20:29;97145.21;;;1.18;85.20
20228;BME280;12195;55.790;37.572;2024-01-11T07:23:04;97141.70;;;1.19;85.21
20228;BME280;12195;55.790;37.572;2024-01-11T07:25:37;97145.38;;;1.15;85.16
20228;BME280;12195;55.790;37.572;2024-01-11T07:28:11;97141.88;;;1.16;85.23
20228;BME280;12195;55.790;37.572;2024-01-11T07:30:45;97138.36;;;1.17;85.29
20228;BME280;12195;55.790;37.572;2024-01-11T07:33:21;97133.20;;;1.17;85.27
20228;BME280;12195;55.790;37.572;2024-01-11T07:35:54;97141.70;;;1.19;85.25
20228;BME280;12195;55.790;37.572;2024-01-11T07:38:27;97136.16;;;1.25;85.35
20228;BME280;12195;55.790;37.572;2024-01-11T07:41:00;97128.06;;;1.31;85.39
20228;BME280;12195;55.790;37.572;2024-01-11T07:43:34;97122.43;;;1.24;85.31
20228;BME280;12195;55.790;37.572;2024-01-11T07:46:08;97123.83;;;1.30;85.28
20228;BME280;12195;55.790;37.572;2024-01-11T07:48:41;97116.91;;;1.44;85.34
20228;BME280;12195;55.790;37.572;2024-01-11T07:51:16;97111.63;;;1.32;85.17
20228;BME280;12195;55.790;37.572;2024-01-11T07:53:50;97107.01;;;1.37;85.22
20228;BME280;12195;55.790;37.572;2024-01-11T07:56:25;97102.97;;;1.47;85.35
20228;BME280;12195;55.790;37.572;2024-01-11T07:58:58;97092.72;;;1.45;84.83
20228;BME280;12195;55.790;37.572;2024-01-11T08:01:33;97101.84;;;1.37;84.87
20228;BME280;12195;55.790;37.572;2024-01-11T08:04:10;97096.95;;;1.46;85.14
20228;BME280;12195;55.790;37.572;2024-01-11T08:06:43;97087.81;;;1.41;85.10
20228;BME280;12195;55.790;37.572;2024-01-11T08:09:16;97088.28;;;1.33;85.10
20228;BME280;12195;55.790;37.572;2024-01-11T08:11:49;97097.52;;;1.37;85.28
20228;BME280;12195;55.790;37.572;2024-01-11T08:14:26;97092.44;;;1.36;85.37
20228;BME280;12195;55.790;37.572;2024-01-11T08:16:59;97079.69;;;1.33;85.41
20228;BME280;12195;55.790;37.572;2024-01-11T08:19:34;97084.14;;;1.31;85.45
20228;BME280;12195;55.790;37.572;2024-01-11T08:22:06;97074.61;;;1.31;85.57
20228;BME280;12195;55.790;37.572;2024-01-11T08:24:41;97080.71;;;1.30;85.66
20228;BME280;12195;55.790;37.572;2024-01-11T08:27:14;97076.30;;;1.32;85.68
20228;BME280;12195;55.790;37.572;2024-01-11T08:29:49;97080.80;;;1.29;85.72
20228;BME280;12195;55.790;37.572;2024-01-11T08:32:22;97066.98;;;1.30;85.77
20228;BME280;12195;55.790;37.572;2024-01-11T08:34:58;97060.70;;;1.34;85.77
20228;BME280;12195;55.790;37.572;2024-01-11T08:37:31;97066.59;;;1.36;85.68
20228;BME280;12195;55.790;37.572;2024-01-11T08:40:05;97066.59;;;1.36;85.68
20228;BME280;12195;55.790;37.572;2024-01-11T08:42:40;97085.14;;;1.42;85.76
20228;BME280;12195;55.790;37.572;2024-01-11T08:45:15;97064.94;;;1.35;85.67
20228;BME280;12195;55.790;37.572;2024-01-11T08:47:50;97051.45;;;1.44;85.82
20228;BME280;12195;55.790;37.572;2024-01-11T08:50:24;97068.25;;;1.37;85.77
20228;BME280;12195;55.790;37.572;2024-01-11T08:52:58;97071.94;;;1.33;85.75
20228;BME280;12195;55.790;37.572;2024-01-11T08:55:33;97144.58;;;1.42;85.96
20228;BME280;12195;55.790;37.572;2024-01-11T08:58:06;97172.00;;;1.45;85.97
20228;BME280;12195;55.790;37.572;2024-01-11T09:00:46;97151.32;;;1.45;85.88
20228;BME280;12195;55.790;37.572;2024-01-11T09:03:23;97143.77;;;1.42;85.89
20228;BME280;12195;55.790;37.572;2024-01-11T09:05:58;97167.58;;;1.47;85.92
20228;BME280;12195;55.790;37.572;2024-01-11T09:08:31;97172.08;;;1.43;85.86
20228;BME280;12195;55.790;37.572;2024-01-11T09:11:04;97163.95;;;1.35;85.69
20228;BME280;12195;55.790;37.572;2024-01-11T09:13:38;97157.41;;;1.30;85.81
20228;BME280;12195;55.790;37.572;2024-01-11T09:16:17;97166.66;;;1.34;85.97
20228;BME280;12195;55.790;37.572;2024-01-11T09:18:46;97181.61;;;1.43;85.97
20228;BME280;12195;55.790;37.572;2024-01-11T09:21:21;97172.38;;;1.39;85.46
20228;BME280;12195;55.790;37.572;2024-01-11T09:23:54;97175.13;;;1.36;85.75
20228;BME280;12195;55.790;37.572;2024-01-11T09:26:28;97186.01;;;1.27;85.90
20228;BME280;12195;55.790;37.572;2024-01-11T09:29:01;97202.52;;;1.24;85.96
20228;BME280;12195;55.790;37.572;2024-01-11T09:31:37;97210.19;;;1.26;86.05
20228;BME280;12195;55.790;37.572;2024-01-11T09:34:11;97216.00;;;1.29;86.08
20228;BME280;12195;55.790;37.572;2024-01-11T09:36:45;97224.28;;;1.20;85.81
20228;BME280;12195;55.790;37.572;2024-01-11T09:39:18;97203.70;;;1.19;85.52
20228;BME280;12195;55.790;37.572;2024-01-11T09:41:58;97207.38;;;1.15;85.46
20228;BME280;12195;55.790;37.572;2024-01-11T09:44:28;97223.33;;;1.07;85.53
20228;BME280;12195;55.790;37.572;2024-01-11T09:47:07;97213.08;;;1.06;85.42
20228;BME280;12195;55.790;37.572;2024-01-11T09:49:45;97224.63;;;1.14;85.67
20228;BME280;12195;55.790;37.572;2024-01-11T09:52:20;97229.67;;;1.02;85.62
20228;BME280;12195;55.790;37.572;2024-01-11T09:54:58;97224.10;;;0.94;85.62
20228;BME280;12195;55.790;37.572;2024-01-11T09:57:33;97235.23;;;1.10;86.11
20228;BME280;12195;55.790;37.572;2024-01-11T10:00:10;97229.11;;;0.97;85.45
20228;BME280;12195;55.790;37.572;2024-01-11T10:02:49;97236.58;;;1.01;85.65
20228;BME280;12195;55.790;37.572;2024-01-11T10:05:23;97239.23;;;1.00;85.58
20228;BME280;12195;55.790;37.572;2024-01-11T10:07:57;97261.72;;;1.13;85.71
20228;BME280;12195;55.790;37.572;2024-01-11T10:10:32;97260.42;;;0.91;85.19
20228;BME280;12195;55.790;37.572;2024-01-11T10:13:05;97261.59;;;1.01;85.64
20228;BME280;12195;55.790;37.572;2024-01-11T10:15:41;97267.75;;;0.83;85.39
20228;BME280;12195;55.790;37.572;2024-01-11T10:18:14;97288.09;;;0.89;85.85
20228;BME280;12195;55.790;37.572;2024-01-11T10:20:49;97283.42;;;0.64;85.31
20228;BME280;12195;55.790;37.572;2024-01-11T10:23:25;97289.39;;;0.49;85.18
20228;BME280;12195;55.790;37.572;2024-01-11T10:26:01;97310.31;;;0.60;85.91
20228;BME280;12195;55.790;37.572;2024-01-11T10:28:34;97310.38;;;0.59;85.87
20228;BME280;12195;55.790;37.572;2024-01-11T10:31:12;97323.72;;;0.67;86.38
20228;BME280;12195;55.790;37.572;2024-01-11T10:33:47;97324.70;;;0.49;85.44
20228;BME280;12195;55.790;37.572;2024-01-11T10:36:20;97355.91;;;0.44;85.50
20228;BME280;12195;55.790;37.572;2024-01-11T10:38:54;97336.89;;;0.30;85.24
20228;BME280;12195;55.790;37.572;2024-01-11T10:41:35;97347.14;;;0.31;85.56
20228;BME280;12195;55.790;37.572;2024-01-11T10:44:18;97351.64;;;0.28;85.48
20228;BME280;12195;55.790;37.572;2024-01-11T10:46:49;97377.80;;;0.20;85.09
20228;BME280;12195;55.790;37.572;2024-01-11T10:49:24;97385.54;;;0.20;84.87
20228;BME280;12195;55.790;37.572;2024-01-11T10:52:02;97388.07;;;0.04;84.85
20228;BME280;12195;55.790;37.572;2024-01-11T10:54:37;97403.48;;;-0.11;84.67
20228;BME280;12195;55.790;37.572;2024-01-11T10:57:13;97420.92;;;0.01;83.91
20228;BME280;12195;55.790;37.572;2024-01-11T10:59:48;97413.72;;;-0.27;83.30
20228;BME280;12195;55.790;37.572;2024-01-11T11:02:22;97438.26;;;-0.20;83.38
20228;BME280;12195;55.790;37.572;2024-01-11T11:04:55;97445.36;;;-0.42;82.62
20228;BME280;12195;55.790;37.572;2024-01-11T11:07:28;97465.44;;;-0.48;83.20
20228;BME280;12195;55.790;37.572;2024-01-11T11:10:02;97457.93;;;-0.90;81.80
20228;BME280;12195;55.790;37.572;2024-01-11T11:12:38;97456.20;;;-0.89;82.94
20228;BME280;12195;55.790;37.572;2024-01-11T11:15:13;97473.97;;;-1.22;82.62
20228;BME280;12195;55.790;37.572;2024-01-11T11:17:46;97496.34;;;-1.04;84.46
20228;BME280;12195;55.790;37.572;2024-01-11T11:20:19;97488.16;;;-1.32;83.86
20228;BME280;12195;55.790;37.572;2024-01-11T11:23:08;97506.75;;;-1.45;83.72
20228;BME280;12195;55.790;37.572;2024-01-11T11:25:42;97508.00;;;-1.54;84.06
20228;BME280;12195;55.790;37.572;2024-01-11T11:28:18;97515.77;;;-1.55;83.67
20228;BME280;12195;55.790;37.572;2024-01-11T11:30:53;97521.92;;;-1.79;83.15
20228;BME280;12195;55.790;37.572;2024-01-11T11:33:27;97521.40;;;-1.87;83.36
20228;BME280;12195;55.790;37.572;2024-01-11T11:36:03;97515.63;;;-2.35;81.76
20228;BME280;12195;55.790;37.572;2024-01-11T11:38:36;97533.78;;;-2.18;82.34
20228;BME280;12195;55.790;37.572;2024-01-11T11:41:11;97565.25;;;-2.56;81.82
20228;BME280;12195;55.790;37.572;2024-01-11T11:43:47;97585.69;;;-2.53;82.94
20228;BME280;12195;55.790;37.572;2024-01-11T11:46:21;97573.12;;;-2.84;82.79
20228;BME280;12195;55.790;37.572;2024-01-11T11:48:54;97553.09;;;-2.97;83.12
20228;BME280;12195;55.790;37.572;2024-01-11T11:51:28;97584.11;;;-3.28;83.08
20228;BME280;12195;55.790;37.572;2024-01-11T11:54:03;97585.16;;;-3.09;83.49
20228;BME280;12195;55.790;37.572;2024-01-11T11:56:38;97598.02;;;-3.35;83.14
20228;BME280;12195;55.790;37.572;2024-01-11T11:59:12;97612.95;;;-3.46;82.73
20228;BME280;12195;55.790;37.572;2024-01-11T12:01:45;97596.17;;;-3.56;83.14
20228;BME280;12195;55.790;37.572;2024-01-11T12:04:18;97619.16;;;-3.53;82.98
20228;BME280;12195;55.790;37.572;2024-01-11T12:06:50;97618.95;;;-3.73;82.32
20228;BME280;12195;55.790;37.572;2024-01-11T12:09:25;97618.39;;;-4.08;81.41
20228;BME280;12195;55.790;37.572;2024-01-11T12:11:59;97622.17;;;-4.20;81.65
20228;BME280;12195;55.790;37.572;2024-01-11T12:14:36;97630.30;;;-4.35;82.24
20228;BME280;12195;55.790;37.572;2024-01-11T12:17:09;97636.82;;;-4.54;82.49
20228;BME280;12195;55.790;37.572;2024-01-11T12:19:42;97648.13;;;-4.61;82.59
20228;BME280;12195;55.790;37.572;2024-01-11T12:22:16;97629.87;;;-4.49;82.88
20228;BME280;12195;55.790;37.572;2024-01-11T12:24:51;97631.27;;;-4.39;83.12
20228;BME280;12195;55.790;37.572;2024-01-11T12:27:24;97638.52;;;-4.53;82.68
20228;BME280;12195;55.790;37.572;2024-01-11T12:29:58;97647.48;;;-4.38;82.98
20228;BME280;12195;55.790;37.572;2024-01-11T12:32:32;97642.66;;;-4.20;83.17
20228;BME280;12195;55.790;37.572;2024-01-11T12:35:07;97659.69;;;-4.19;82.89
20228;BME280;12195;55.790;37.572;2024-01-11T12:37:59;97666.31;;;-4.12;82.86
20228;BME280;12195;55.790;37.572;2024-01-11T12:40:37;97669.74;;;-4.13;81.95
20228;BME280;12195;55.790;37.572;2024-01-11T12:43:13;97683.71;;;-4.23;82.47
20228;BME280;12195;55.790;37.572;2024-01-11T12:45:48;97668.97;;;-4.44;82.29
20228;BME280;12195;55.790;37.572;2024-01-11T12:48:22;97671.02;;;-4.56;82.36
20228;BME280;12195;55.790;37.572;2024-01-11T12:50:57;97683.15;;;-4.63;82.96
20228;BME280;12195;55.790;37.572;2024-01-11T12:53:32;97690.52;;;-4.83;82.41
20228;BME280;12195;55.790;37.572;2024-01-11T12:56:09;97695.03;;;-4.92;82.13
20228;BME280;12195;55.790;37.572;2024-01-11T12:58:44;97719.25;;;-5.05;82.62
20228;BME280;12195;55.790;37.572;2024-01-11T13:01:18;97701.11;;;-5.28;82.59
20228;BME280;12195;55.790;37.572;2024-01-11T13:03:52;97693.90;;;-5.48;82.67
20228;BME280;12195;55.790;37.572;2024-01-11T13:06:26;97697.20;;;-5.43;83.50
20228;BME280;12195;55.790;37.572;2024-01-11T13:09:03;97709.03;;;-5.39;83.95
20228;BME280;12195;55.790;37.572;2024-01-11T13:11:36;97718.54;;;-5.45;83.94
20228;BME280;12195;55.790;37.572;2024-01-11T13:14:11;97711.59;;;-5.76;83.67
20228;BME280;12195;55.790;37.572;2024-01-11T13:16:46;97719.44;;;-5.81;83.71
20228;BME280;12195;55.790;37.572;2024-01-11T13:19:20;97725.64;;;-5.93;83.52
20228;BME280;12195;55.790;37.572;2024-01-11T13:21:55;97731.01;;;-6.05;83.35
20228;BME280;12195;55.790;37.572;2024-01-11T13:24:28;97719.80;;;-5.98;83.48
20228;BME280;12195;55.790;37.572;2024-01-11T13:27:02;97729.28;;;-6.03;83.48
20228;BME280;12195;55.790;37.572;2024-01-11T13:29:35;97740.52;;;-6.12;83.08